Fillmore, Minnesota
Current Conditions -  °F | °C
As of 8:35 PM on Thursday 20 Nov 2014 (Local Time) from KFKA Reporting Station
Clear Clear  
Wind Chill: -6°   Ceiling: Unl
Heat Index:   Visibility: 10mi
Dew Point:   Wind: 8mph
Humidity: 78%   Direction: 280°W
Pressure: 30.22"   Gusts: NA
Location:  43.7236°N, 92.2677°W
Report Text: KFKA 210235Z AUTO 28007KT 10SM CLR M14/M17 A3022 RMK AO2 T11411172
Loading
Personal Weather Stations






























Interactive Weather Map New forecast layout! Learn more

10-Day Weather Forecast

Advertisements
Track Severe Weather on mobile